createdAt,value
2023-05-23T00:00:39.980Z,74.20
2023-05-23T00:03:07.149Z,74.20
2023-05-23T00:05:34.354Z,74.10
2023-05-23T00:08:01.558Z,74.40
2023-05-23T00:10:28.562Z,74.60
2023-05-23T00:12:55.529Z,75.10
2023-05-23T00:15:22.636Z,74.20
2023-05-23T00:17:49.625Z,74.30
2023-05-23T00:20:17.030Z,74.30
2023-05-23T00:22:48.317Z,77.20
2023-05-23T00:25:17.321Z,75.40
2023-05-23T00:27:44.242Z,74.90
2023-05-23T00:30:13.256Z,75.00
2023-05-23T00:32:42.269Z,75.40
2023-05-23T00:35:09.346Z,75.90
2023-05-23T00:37:38.338Z,77.00
2023-05-23T00:40:05.596Z,75.80
2023-05-23T00:42:34.481Z,76.90
2023-05-23T00:45:01.512Z,75.70
2023-05-23T00:47:28.862Z,76.20
2023-05-23T00:49:55.979Z,75.80
2023-05-23T00:52:22.924Z,76.90
2023-05-23T00:54:49.865Z,75.90
2023-05-23T00:57:16.960Z,76.20
2023-05-23T00:59:45.603Z,75.60
2023-05-23T01:02:12.984Z,76.60
2023-05-23T01:04:40.970Z,77.00
2023-05-23T01:07:07.882Z,77.40
2023-05-23T01:09:36.942Z,78.30
2023-05-23T01:12:07.068Z,76.80
2023-05-23T01:14:40.498Z,76.60
2023-05-23T01:17:28.433Z,77.80
2023-05-23T01:20:15.638Z,78.50
2023-05-23T01:23:03.012Z,77.20
2023-05-23T01:25:46.743Z,78.90
2023-05-23T01:28:16.782Z,76.60
2023-05-23T01:30:45.352Z,76.60
2023-05-23T01:33:14.160Z,77.00
2023-05-23T01:35:44.066Z,77.30
2023-05-23T01:38:11.034Z,76.60
2023-05-23T01:40:39.378Z,77.40
2023-05-23T01:43:06.563Z,77.90
2023-05-23T01:45:33.863Z,76.60
2023-05-23T01:48:02.160Z,76.40
2023-05-23T01:50:29.778Z,77.80
2023-05-23T01:52:57.134Z,76.50
2023-05-23T01:55:26.540Z,76.80
2023-05-23T01:57:55.565Z,77.50
2023-05-23T02:00:22.913Z,77.50
2023-05-23T02:02:50.161Z,78.10
2023-05-23T02:05:17.906Z,77.40
2023-05-23T02:07:45.822Z,78.10
2023-05-23T02:10:12.867Z,77.80
2023-05-23T02:12:39.776Z,78.00
2023-05-23T02:15:07.898Z,78.00
2023-05-23T02:17:34.955Z,78.60
2023-05-23T02:20:02.136Z,78.60
2023-05-23T02:22:29.095Z,77.20
2023-05-23T02:24:56.143Z,77.20
2023-05-23T02:27:23.265Z,77.10
2023-05-23T02:29:50.297Z,77.20
2023-05-23T02:32:17.256Z,77.20
2023-05-23T02:34:46.721Z,76.90
2023-05-23T02:37:14.156Z,77.00
2023-05-23T02:39:41.318Z,77.00
2023-05-23T02:42:08.297Z,76.90
2023-05-23T02:44:35.384Z,77.00
2023-05-23T02:47:02.508Z,77.80
2023-05-23T02:49:29.561Z,77.40
2023-05-23T02:51:56.499Z,77.30
2023-05-23T02:54:23.773Z,77.00
2023-05-23T02:56:52.393Z,77.20
2023-05-23T02:59:19.456Z,77.20
2023-05-23T03:01:46.499Z,77.80
2023-05-23T03:04:13.933Z,77.50
2023-05-23T03:06:42.265Z,77.20
2023-05-23T03:09:09.833Z,77.30
2023-05-23T03:11:37.268Z,77.60
2023-05-23T03:14:04.245Z,77.60
2023-05-23T03:16:31.282Z,77.30
2023-05-23T03:18:58.794Z,78.00
2023-05-23T03:21:25.872Z,77.20
2023-05-23T03:23:52.991Z,77.30
2023-05-23T03:26:19.979Z,77.60
2023-05-23T03:28:46.916Z,77.10
2023-05-23T03:31:13.870Z,77.20
2023-05-23T03:33:41.038Z,77.30
2023-05-23T03:36:08.186Z,77.20
2023-05-23T03:38:35.131Z,77.30
2023-05-23T03:41:03.084Z,77.30
2023-05-23T03:43:30.776Z,77.20
2023-05-23T03:45:57.835Z,77.20
2023-05-23T03:48:24.883Z,77.50
2023-05-23T03:50:52.080Z,77.80
2023-05-23T03:53:19.080Z,77.50
2023-05-23T03:55:46.123Z,77.30
2023-05-23T03:58:13.133Z,77.30
2023-05-23T04:00:42.681Z,77.30
2023-05-23T04:03:10.816Z,77.30
2023-05-23T04:05:37.874Z,77.30
2023-05-23T04:08:05.161Z,77.30
2023-05-23T04:10:32.602Z,77.30
2023-05-23T04:12:59.776Z,77.40
2023-05-23T04:15:28.136Z,77.40
2023-05-23T04:17:58.360Z,77.40
2023-05-23T04:20:26.861Z,77.40
2023-05-23T04:22:53.850Z,77.40
2023-05-23T04:25:21.267Z,77.40
2023-05-23T04:28:23.743Z,77.40
2023-05-23T04:30:51.200Z,77.60
2023-05-23T04:33:22.191Z,77.50
2023-05-23T04:35:49.537Z,77.70
2023-05-23T04:38:17.254Z,77.70
2023-05-23T04:40:44.969Z,77.70
2023-05-23T04:43:33.683Z,77.80
2023-05-23T04:46:15.797Z,77.90
2023-05-23T04:48:48.762Z,78.20
2023-05-23T04:51:15.941Z,78.10
2023-05-23T04:53:53.128Z,78.20
2023-05-23T04:56:27.404Z,78.10
2023-05-23T04:58:55.148Z,78.20
2023-05-23T05:01:25.856Z,78.30
2023-05-23T05:03:53.889Z,78.40
2023-05-23T05:06:21.714Z,78.30
2023-05-23T05:08:49.506Z,78.60
2023-05-23T05:11:16.609Z,78.50
2023-05-23T05:13:43.747Z,78.60
2023-05-23T05:16:10.788Z,78.80
2023-05-23T05:18:39.156Z,78.80
2023-05-23T05:21:06.600Z,78.70
2023-05-23T05:23:33.625Z,78.70
2023-05-23T05:26:00.896Z,79.80
2023-05-23T05:28:28.340Z,79.10
2023-05-23T05:30:55.648Z,78.80
2023-05-23T05:33:28.504Z,78.90
2023-05-23T05:36:07.550Z,78.90
2023-05-23T05:38:34.689Z,79.00
2023-05-23T05:41:01.866Z,79.00
2023-05-23T05:43:35.982Z,79.10
2023-05-23T05:46:03.360Z,79.20
2023-05-23T05:48:30.946Z,79.30
2023-05-23T05:51:03.328Z,79.40
2023-05-23T05:53:33.061Z,79.20
2023-05-23T05:56:00.632Z,79.20
2023-05-23T05:58:27.758Z,79.20
2023-05-23T06:00:59.221Z,79.30
2023-05-23T06:03:27.446Z,79.30
2023-05-23T06:05:55.753Z,79.30
2023-05-23T06:08:22.937Z,79.40
2023-05-23T06:10:49.902Z,79.50
2023-05-23T06:13:17.131Z,79.40
2023-05-23T06:15:47.838Z,79.40
2023-05-23T06:18:15.233Z,79.60
2023-05-23T06:20:42.431Z,79.80
2023-05-23T06:23:14.240Z,79.60
2023-05-23T06:25:41.595Z,79.80
2023-05-23T06:28:09.202Z,79.90
2023-05-23T06:30:38.235Z,80.00
2023-05-23T06:33:07.745Z,80.10
2023-05-23T06:35:34.811Z,80.10
2023-05-23T06:38:01.836Z,80.30
2023-05-23T06:40:28.925Z,80.40
2023-05-23T06:42:56.678Z,80.80
2023-05-23T06:45:38.471Z,80.90
2023-05-23T06:48:06.103Z,80.70
2023-05-23T06:50:35.169Z,80.80
2023-05-23T06:53:03.244Z,81.10
2023-05-23T06:55:30.560Z,80.80
2023-05-23T06:57:58.014Z,80.90
2023-05-23T07:00:25.618Z,80.90
2023-05-23T07:03:03.966Z,81.20
2023-05-23T07:05:33.460Z,81.30
2023-05-23T07:08:00.894Z,81.20
2023-05-23T07:10:27.955Z,81.30
2023-05-23T07:13:01.669Z,81.40
2023-05-23T07:15:29.816Z,81.60
2023-05-23T07:18:07.942Z,82.10
2023-05-23T07:20:35.805Z,81.50
2023-05-23T07:23:11.360Z,81.40
2023-05-23T07:25:53.751Z,81.30
2023-05-23T07:28:29.600Z,81.40
2023-05-23T07:30:58.576Z,81.60
2023-05-23T07:33:25.760Z,81.50
2023-05-23T07:35:58.339Z,81.80
2023-05-23T07:38:26.868Z,81.60
2023-05-23T07:41:03.085Z,81.40
2023-05-23T07:43:38.627Z,81.30
2023-05-23T07:46:06.134Z,81.30
2023-05-23T07:48:33.441Z,81.40
2023-05-23T07:51:01.279Z,81.30
2023-05-23T07:53:29.039Z,81.50
2023-05-23T07:55:56.824Z,81.30
2023-05-23T07:58:28.165Z,81.60
2023-05-23T08:00:55.202Z,81.40
2023-05-23T08:03:42.201Z,81.10
2023-05-23T08:06:15.409Z,80.80
2023-05-23T08:08:43.856Z,80.90
2023-05-23T08:11:10.929Z,81.40
2023-05-23T08:13:45.124Z,81.10
2023-05-23T08:16:30.613Z,80.70
2023-05-23T08:18:58.120Z,80.60
2023-05-23T08:21:25.236Z,80.40
2023-05-23T08:23:52.487Z,80.10
2023-05-23T08:26:19.978Z,80.00
2023-05-23T08:28:48.558Z,79.80
2023-05-23T08:31:16.130Z,79.60
2023-05-23T08:33:44.773Z,79.60
2023-05-23T08:36:12.860Z,80.00
2023-05-23T08:38:40.077Z,80.00
2023-05-23T08:41:18.490Z,80.00
2023-05-23T08:43:46.852Z,80.10
2023-05-23T08:46:21.071Z,79.80
2023-05-23T08:48:51.330Z,79.70
2023-05-23T08:51:19.216Z,79.40
2023-05-23T08:53:50.025Z,79.30
2023-05-23T08:56:19.186Z,79.10
2023-05-23T08:58:49.109Z,79.00
2023-05-23T09:01:20.764Z,78.90
2023-05-23T09:03:51.615Z,78.70
2023-05-23T09:06:27.333Z,78.10
2023-05-23T09:08:54.713Z,78.10
2023-05-23T09:11:24.441Z,77.80
2023-05-23T09:13:51.466Z,78.20
2023-05-23T09:16:20.131Z,78.40
2023-05-23T09:18:51.481Z,78.40
2023-05-23T09:21:21.812Z,78.50
2023-05-23T09:23:56.078Z,78.30
2023-05-23T09:26:23.426Z,78.50
2023-05-23T09:28:50.496Z,78.50
2023-05-23T09:31:17.687Z,77.80
2023-05-23T09:33:48.437Z,76.80
2023-05-23T09:36:17.168Z,77.00
2023-05-23T09:38:45.141Z,75.80
2023-05-23T09:41:12.711Z,76.20
2023-05-23T09:43:41.147Z,75.80
2023-05-23T09:46:09.711Z,76.50
2023-05-23T09:48:37.067Z,77.10
2023-05-23T09:51:06.344Z,76.90
2023-05-23T09:53:33.547Z,77.00
2023-05-23T09:56:02.199Z,77.10
2023-05-23T09:58:30.365Z,76.60
2023-05-23T10:00:58.322Z,76.00
2023-05-23T10:03:32.126Z,76.00
2023-05-23T10:06:07.496Z,77.10
2023-05-23T10:08:36.925Z,77.90
2023-05-23T10:11:18.826Z,79.00
2023-05-23T10:13:46.550Z,79.90
2023-05-23T10:16:19.801Z,80.80
2023-05-23T10:18:49.874Z,81.10
2023-05-23T10:21:21.141Z,79.20
2023-05-23T10:23:48.758Z,78.40
2023-05-23T10:26:15.817Z,73.60
2023-05-23T10:28:43.006Z,75.20
2023-05-23T10:31:10.729Z,75.00
2023-05-23T10:33:41.982Z,75.10
2023-05-23T10:36:10.651Z,74.60
2023-05-23T10:38:37.828Z,74.00
2023-05-23T10:41:11.539Z,70.80
2023-05-23T10:43:47.868Z,73.30
2023-05-23T10:46:15.408Z,73.40
2023-05-23T10:48:43.654Z,71.20
2023-05-23T10:51:11.309Z,69.60
2023-05-23T10:53:39.195Z,69.50
2023-05-23T10:56:07.610Z,68.20
2023-05-23T10:58:34.926Z,66.70
2023-05-23T11:01:02.973Z,66.00
2023-05-23T11:03:45.315Z,64.90
2023-05-23T11:06:32.781Z,64.70
2023-05-23T11:09:06.301Z,63.40
2023-05-23T11:11:54.721Z,62.80
2023-05-23T11:14:32.447Z,62.20
2023-05-23T11:17:19.758Z,59.10
2023-05-23T11:19:58.688Z,58.40
2023-05-23T11:22:30.456Z,59.00
2023-05-23T11:24:58.133Z,59.60
2023-05-23T11:27:32.464Z,60.20
2023-05-23T11:30:00.571Z,61.50
2023-05-23T11:32:28.626Z,61.70
2023-05-23T11:34:55.808Z,61.00
2023-05-23T11:37:25.926Z,61.70
2023-05-23T11:39:54.162Z,61.40
2023-05-23T11:42:21.242Z,62.20
2023-05-23T11:44:51.769Z,62.60
2023-05-23T11:47:19.081Z,62.20
2023-05-23T11:49:49.467Z,62.60
2023-05-23T11:52:16.408Z,62.60
2023-05-23T11:54:46.560Z,63.60
2023-05-23T11:57:14.292Z,62.70
2023-05-23T11:59:41.358Z,64.10
2023-05-23T12:02:08.567Z,63.90
2023-05-23T12:04:37.308Z,64.60
2023-05-23T12:07:05.025Z,65.00
2023-05-23T12:09:32.253Z,65.20
2023-05-23T12:11:59.377Z,66.20
2023-05-23T12:14:29.023Z,67.20
2023-05-23T12:16:56.175Z,68.10
2023-05-23T12:19:23.279Z,68.10
2023-05-23T12:21:50.416Z,69.10
2023-05-23T12:24:18.299Z,69.30
2023-05-23T12:26:55.582Z,69.70
2023-05-23T12:29:28.474Z,68.50
2023-05-23T12:31:55.549Z,69.50
2023-05-23T12:34:22.679Z,69.30
2023-05-23T12:36:53.358Z,69.30
2023-05-23T12:39:26.440Z,68.50
2023-05-23T12:41:53.603Z,67.20
2023-05-23T12:44:20.494Z,66.60
2023-05-23T12:46:48.309Z,65.90
2023-05-23T12:49:15.362Z,64.80
2023-05-23T12:51:42.340Z,65.50
2023-05-23T12:54:09.383Z,65.20
2023-05-23T12:56:36.362Z,64.50
2023-05-23T12:59:03.427Z,64.90
2023-05-23T13:01:30.481Z,61.10
2023-05-23T13:03:57.583Z,60.90
2023-05-23T13:06:24.551Z,60.70
2023-05-23T13:08:51.669Z,61.90
2023-05-23T13:11:18.713Z,61.00
2023-05-23T13:13:46.800Z,59.00
2023-05-23T13:16:13.809Z,57.10
2023-05-23T13:18:40.788Z,56.60
2023-05-23T13:21:07.833Z,59.50
2023-05-23T13:23:36.133Z,59.00
2023-05-23T13:26:03.265Z,59.30
2023-05-23T13:28:30.257Z,60.00
2023-05-23T13:30:57.415Z,58.60
2023-05-23T13:33:24.404Z,60.30
2023-05-23T13:35:51.661Z,60.60
2023-05-23T13:38:19.179Z,61.20
2023-05-23T13:40:46.155Z,61.40
2023-05-23T13:43:13.251Z,61.30
2023-05-23T13:45:40.471Z,61.70
2023-05-23T13:48:07.529Z,62.20
2023-05-23T13:50:34.555Z,62.20
2023-05-23T14:00:23.807Z,63.90
2023-05-23T14:02:50.916Z,64.20
2023-05-23T14:05:19.473Z,64.40
2023-05-23T14:07:47.384Z,65.10
2023-05-23T14:10:15.274Z,65.70
2023-05-23T14:12:42.292Z,66.70
2023-05-23T14:15:10.252Z,66.80
2023-05-23T14:17:37.305Z,66.80
2023-05-23T14:20:04.557Z,67.00
2023-05-23T14:22:31.571Z,66.50
2023-05-23T14:24:58.681Z,66.50
2023-05-23T14:27:26.847Z,65.60
2023-05-23T14:29:53.812Z,66.50
2023-05-23T14:32:21.057Z,66.50
2023-05-23T14:34:48.038Z,66.50
2023-05-23T14:37:15.043Z,66.50
2023-05-23T14:39:42.097Z,66.50
2023-05-23T14:42:09.018Z,66.50
2023-05-23T14:44:35.946Z,66.50
2023-05-23T14:47:02.977Z,66.80
2023-05-23T14:49:29.902Z,67.00
2023-05-23T14:51:56.921Z,67.20
2023-05-23T14:54:23.968Z,67.50
2023-05-23T14:56:53.184Z,67.60
2023-05-23T14:59:20.483Z,67.70
2023-05-23T15:01:47.522Z,67.60
2023-05-23T15:04:14.710Z,67.80
2023-05-23T15:06:41.791Z,68.20
2023-05-23T15:09:10.716Z,68.40
2023-05-23T15:11:38.948Z,68.20
2023-05-23T15:14:06.135Z,68.60
2023-05-23T15:16:33.533Z,68.50
2023-05-23T15:19:00.915Z,68.90
2023-05-23T15:21:28.030Z,69.30
2023-05-23T15:23:55.001Z,69.80
2023-05-23T15:26:22.645Z,69.80
2023-05-23T15:28:49.823Z,69.90
2023-05-23T15:31:16.901Z,69.70
2023-05-23T15:33:43.999Z,69.50
2023-05-23T15:36:13.310Z,69.20
2023-05-23T15:38:40.450Z,68.90
2023-05-23T15:41:07.478Z,68.60
2023-05-23T15:43:35.683Z,68.80
2023-05-23T15:46:02.943Z,68.80
2023-05-23T15:48:29.990Z,68.70
2023-05-23T15:50:56.944Z,68.80
2023-05-23T15:53:23.985Z,68.30
2023-05-23T15:55:50.915Z,68.20
2023-05-23T15:58:17.849Z,68.60
2023-05-23T16:00:44.818Z,68.30
2023-05-23T16:03:11.870Z,67.30
2023-05-23T16:05:39.062Z,66.80
2023-05-23T16:08:06.184Z,67.40
2023-05-23T16:10:33.181Z,68.10
2023-05-23T16:13:00.244Z,67.40
2023-05-23T16:15:27.150Z,67.20
2023-05-23T16:17:54.088Z,66.80
2023-05-23T16:20:21.088Z,67.80
2023-05-23T16:22:48.313Z,67.70
2023-05-23T16:25:15.274Z,67.10
2023-05-23T16:27:42.383Z,65.60
2023-05-23T16:30:09.996Z,66.50
2023-05-23T16:32:37.485Z,66.00
2023-05-23T16:35:04.597Z,66.00
2023-05-23T16:37:31.594Z,67.00
2023-05-23T16:39:58.538Z,66.50
2023-05-23T16:42:25.527Z,66.80
2023-05-23T16:44:53.371Z,66.70
2023-05-23T16:47:20.570Z,66.90
2023-05-23T16:49:47.573Z,67.00
2023-05-23T16:52:14.538Z,67.50
2023-05-23T16:54:41.498Z,67.60
2023-05-23T16:57:08.460Z,67.60
2023-05-23T16:59:35.445Z,67.40
2023-05-23T17:02:02.491Z,67.80
2023-05-23T17:04:29.441Z,67.80
2023-05-23T17:06:56.340Z,67.50
2023-05-23T17:09:23.351Z,67.80
2023-05-23T17:11:51.282Z,67.00
2023-05-23T17:14:18.211Z,67.50
2023-05-23T17:16:45.264Z,67.90
2023-05-23T17:19:12.331Z,67.40
2023-05-23T17:21:39.372Z,67.10
2023-05-23T17:24:06.358Z,67.80
2023-05-23T17:26:33.308Z,67.50
2023-05-23T17:29:00.265Z,66.90
2023-05-23T17:31:29.666Z,66.90
2023-05-23T17:33:57.728Z,66.60
2023-05-23T17:36:24.788Z,66.40
2023-05-23T17:38:53.851Z,68.00
2023-05-23T17:41:23.161Z,67.10
2023-05-23T17:43:50.749Z,65.80
2023-05-23T17:46:17.802Z,66.20
2023-05-23T17:48:48.106Z,66.80
2023-05-23T17:51:15.889Z,66.70
2023-05-23T17:53:43.474Z,66.80
2023-05-23T17:56:10.744Z,67.20
2023-05-23T17:58:39.174Z,65.40
2023-05-23T18:01:07.670Z,66.40
2023-05-23T18:03:34.895Z,66.40
2023-05-23T18:06:01.930Z,65.40
2023-05-23T18:08:28.874Z,65.40
2023-05-23T18:10:55.744Z,65.50
2023-05-23T18:13:23.004Z,66.40
2023-05-23T18:15:50.029Z,66.10
2023-05-23T18:18:18.043Z,66.90
2023-05-23T18:20:45.256Z,67.30
2023-05-23T18:23:12.760Z,67.50
2023-05-23T18:25:39.819Z,67.70
2023-05-23T18:28:09.476Z,67.90
2023-05-23T18:30:36.411Z,68.50
2023-05-23T18:33:03.472Z,68.60
2023-05-23T18:35:30.433Z,68.90
2023-05-23T18:37:57.404Z,69.30
2023-05-23T18:40:26.115Z,69.30
2023-05-23T18:42:53.368Z,69.50
2023-05-23T18:45:20.682Z,70.00
2023-05-23T18:47:47.824Z,70.40
2023-05-23T18:50:15.267Z,70.20
2023-05-23T18:52:42.467Z,70.70
2023-05-23T18:55:09.814Z,71.10
2023-05-23T18:57:37.194Z,70.80
2023-05-23T19:00:04.584Z,72.30
2023-05-23T19:02:32.164Z,72.90
2023-05-23T19:04:59.165Z,73.00
2023-05-23T19:07:26.366Z,72.30
2023-05-23T19:09:53.503Z,72.50
2023-05-23T19:12:20.717Z,73.40
2023-05-23T19:14:47.796Z,73.20
2023-05-23T19:17:14.807Z,73.70
2023-05-23T19:19:41.907Z,73.90
2023-05-23T19:22:09.664Z,72.80
2023-05-23T19:24:37.345Z,74.00
2023-05-23T19:27:04.970Z,73.80
2023-05-23T19:29:32.002Z,73.40
2023-05-23T19:31:58.976Z,74.00
2023-05-23T19:34:26.251Z,74.60
2023-05-23T19:36:53.222Z,73.60
2023-05-23T19:39:20.246Z,73.70
2023-05-23T19:41:47.202Z,73.60
2023-05-23T19:44:14.157Z,74.30
2023-05-23T19:46:41.183Z,73.90
2023-05-23T19:49:09.057Z,74.70
2023-05-23T19:51:36.934Z,73.30
2023-05-23T19:54:04.090Z,73.00
2023-05-23T19:56:31.148Z,73.70
2023-05-23T19:58:58.157Z,73.70
2023-05-23T20:01:25.483Z,73.00
2023-05-23T20:03:52.640Z,73.30
2023-05-23T20:06:20.686Z,72.60
2023-05-23T20:08:47.825Z,73.90
2023-05-23T20:11:14.862Z,73.90
2023-05-23T20:13:41.814Z,72.80
2023-05-23T20:16:09.072Z,72.20
2023-05-23T20:18:36.306Z,72.30
2023-05-23T20:21:05.213Z,72.30
2023-05-23T20:23:32.448Z,72.10
2023-05-23T20:26:00.356Z,72.80
2023-05-23T20:28:27.785Z,72.40
2023-05-23T20:30:54.876Z,72.40
2023-05-23T20:33:22.065Z,72.20
2023-05-23T20:35:49.114Z,73.00
2023-05-23T20:38:18.683Z,73.70
2023-05-23T20:40:46.414Z,73.30
2023-05-23T20:43:15.151Z,75.40
2023-05-23T20:45:42.507Z,73.90
2023-05-23T20:48:09.677Z,73.10
2023-05-23T20:50:37.983Z,74.30
2023-05-23T20:53:06.470Z,74.40
2023-05-23T20:55:35.461Z,74.70
2023-05-23T20:58:02.453Z,75.80
2023-05-23T21:00:29.391Z,77.70
2023-05-23T21:02:56.786Z,77.40
2023-05-23T21:05:23.938Z,77.00
2023-05-23T21:07:50.868Z,77.20
2023-05-23T21:10:17.929Z,78.50
2023-05-23T21:12:50.237Z,78.10
2023-05-23T21:15:17.312Z,79.80
2023-05-23T21:17:44.515Z,78.40
2023-05-23T21:20:12.099Z,79.50
2023-05-23T21:22:39.153Z,80.00
2023-05-23T21:25:06.506Z,78.00
2023-05-23T21:27:33.474Z,78.30
2023-05-23T21:30:00.371Z,78.20
2023-05-23T21:32:27.671Z,79.10
2023-05-23T21:34:54.799Z,79.20
2023-05-23T21:37:21.820Z,77.60
2023-05-23T21:39:51.844Z,77.40
2023-05-23T21:42:19.893Z,78.70
2023-05-23T21:44:46.953Z,77.50
2023-05-23T21:47:14.093Z,78.10
2023-05-23T21:49:41.100Z,78.80
2023-05-23T21:52:08.043Z,78.70
2023-05-23T21:54:35.137Z,77.40
2023-05-23T21:57:02.160Z,76.60
2023-05-23T21:59:29.333Z,77.50
2023-05-23T22:01:56.400Z,80.40
2023-05-23T22:04:23.461Z,80.80
2023-05-23T22:06:50.556Z,81.60
2023-05-23T22:09:18.446Z,81.30
2023-05-23T22:11:45.565Z,81.00
2023-05-23T22:14:12.638Z,80.20
2023-05-23T22:16:39.884Z,82.20
2023-05-23T22:19:08.084Z,81.90
2023-05-23T22:21:35.136Z,82.00
2023-05-23T22:24:02.329Z,82.00
2023-05-23T22:26:29.449Z,80.60
2023-05-23T22:28:56.683Z,82.90
2023-05-23T22:31:24.349Z,83.40
2023-05-23T22:33:51.530Z,83.30
2023-05-23T22:36:18.554Z,82.60
2023-05-23T22:38:45.826Z,83.20
2023-05-23T22:41:12.929Z,84.90
2023-05-23T22:43:40.105Z,84.10
2023-05-23T22:46:07.448Z,85.50
2023-05-23T22:48:34.573Z,84.60
2023-05-23T22:51:02.473Z,84.70
2023-05-23T22:53:30.312Z,84.10
2023-05-23T22:55:57.630Z,86.00
2023-05-23T22:58:24.700Z,84.70
2023-05-23T23:00:51.953Z,86.60
2023-05-23T23:03:19.231Z,86.90
2023-05-23T23:05:46.511Z,85.40
2023-05-23T23:08:13.544Z,84.40
2023-05-23T23:10:41.961Z,83.20
2023-05-23T23:13:09.072Z,83.50
2023-05-23T23:15:36.831Z,83.90
2023-05-23T23:18:05.986Z,83.20
2023-05-23T23:20:33.214Z,82.80
2023-05-23T23:23:00.728Z,84.10
2023-05-23T23:25:27.677Z,82.20
2023-05-23T23:27:54.618Z,84.10
2023-05-23T23:30:21.668Z,83.40
2023-05-23T23:32:48.646Z,82.60
2023-05-23T23:35:15.817Z,82.10
2023-05-23T23:37:42.774Z,81.50
2023-05-23T23:40:10.128Z,83.60
2023-05-23T23:42:37.131Z,82.10
2023-05-23T23:45:04.664Z,82.30
2023-05-23T23:47:32.678Z,80.80
2023-05-23T23:49:59.751Z,81.50
2023-05-23T23:52:28.186Z,80.20
2023-05-23T23:54:55.266Z,81.80
2023-05-23T23:57:22.257Z,81.40
2023-05-23T23:59:49.241Z,80.40
